createdAt,value
2018-09-15T00:01:01.244Z,99.50
2018-09-15T00:03:30.461Z,99.50
2018-09-15T00:05:59.666Z,99.90
2018-09-15T00:08:28.881Z,99.60
2018-09-15T00:10:58.033Z,99.60
2018-09-15T00:13:27.304Z,99.50
2018-09-15T00:15:56.485Z,99.60
2018-09-15T00:18:25.611Z,99.60
2018-09-15T00:20:54.641Z,99.50
2018-09-15T00:23:23.751Z,99.50
2018-09-15T00:25:52.860Z,99.50
2018-09-15T00:28:27.304Z,99.60
2018-09-15T00:30:56.330Z,99.50
2018-09-15T00:33:25.447Z,99.40
2018-09-15T00:35:54.630Z,99.40
2018-09-15T00:38:23.730Z,99.40
2018-09-15T00:40:52.830Z,99.40
2018-09-15T00:43:21.996Z,99.50
2018-09-15T00:45:51.169Z,99.50
2018-09-15T00:48:20.380Z,99.40
2018-09-15T00:50:49.478Z,99.50
2018-09-15T00:53:18.709Z,99.40
2018-09-15T00:55:47.819Z,99.40
2018-09-15T00:58:16.935Z,99.50
2018-09-15T01:00:46.056Z,99.50
2018-09-15T01:03:15.206Z,99.40
2018-09-15T01:05:44.304Z,99.30
2018-09-15T01:08:13.482Z,99.30
2018-09-15T01:10:42.639Z,99.40
2018-09-15T01:13:11.653Z,99.40
2018-09-15T01:15:40.854Z,99.30
2018-09-15T01:18:10.387Z,99.30
2018-09-15T01:20:39.444Z,99.20
2018-09-15T01:23:08.643Z,99.20
2018-09-15T01:25:37.758Z,99.10
2018-09-15T01:28:06.869Z,99.30
2018-09-15T01:30:36.024Z,99.10
2018-09-15T01:33:05.158Z,99.20
2018-09-15T01:35:34.265Z,99.20
2018-09-15T01:38:03.443Z,99.20
2018-09-15T01:40:32.516Z,99.10
2018-09-15T01:43:01.618Z,99.20
2018-09-15T01:45:30.820Z,99.20
2018-09-15T01:47:59.893Z,99.30
2018-09-15T01:50:29.042Z,99.30
2018-09-15T01:52:58.144Z,99.40
2018-09-15T01:55:27.279Z,99.60
2018-09-15T01:57:56.439Z,99.90
2018-09-15T02:00:27.246Z,99.90
2018-09-15T02:02:56.381Z,99.90
2018-09-15T02:05:25.473Z,99.90
2018-09-15T02:07:54.538Z,99.90
2018-09-15T02:10:23.602Z,99.90
2018-09-15T02:12:52.752Z,99.90
2018-09-15T02:15:22.075Z,99.90
2018-09-15T02:17:51.232Z,99.90
2018-09-15T02:20:20.313Z,99.90
2018-09-15T02:22:49.445Z,99.90
2018-09-15T02:25:18.537Z,99.90
2018-09-15T02:27:47.684Z,99.90
2018-09-15T02:30:16.792Z,99.90
2018-09-15T02:32:45.870Z,99.90
2018-09-15T02:35:14.920Z,99.90
2018-09-15T02:37:44.153Z,99.90
2018-09-15T02:40:13.260Z,99.90
2018-09-15T02:42:42.419Z,99.90
2018-09-15T02:45:12.081Z,99.90
2018-09-15T02:47:41.165Z,99.90
2018-09-15T02:50:10.270Z,99.90
2018-09-15T02:52:39.475Z,99.90
2018-09-15T02:55:08.644Z,99.90
2018-09-15T02:57:37.775Z,99.90
2018-09-15T03:00:07.287Z,99.90
2018-09-15T03:02:36.459Z,99.90
2018-09-15T03:05:05.666Z,99.90
2018-09-15T03:07:34.733Z,99.90
2018-09-15T03:10:03.871Z,99.90
2018-09-15T03:12:33.051Z,99.90
2018-09-15T03:15:02.171Z,99.90
2018-09-15T03:17:31.374Z,99.90
2018-09-15T03:20:00.425Z,99.90
2018-09-15T03:22:29.628Z,99.90
2018-09-15T03:24:58.726Z,99.90
2018-09-15T03:27:27.816Z,99.90
2018-09-15T03:29:56.980Z,99.90
2018-09-15T03:32:26.059Z,99.90
2018-09-15T03:34:55.260Z,99.90
2018-09-15T03:37:24.512Z,99.90
2018-09-15T03:39:53.562Z,99.90
2018-09-15T03:42:26.655Z,99.90
2018-09-15T03:44:55.705Z,99.90
2018-09-15T03:47:24.840Z,99.90
2018-09-15T03:49:53.902Z,99.90
2018-09-15T03:52:23.135Z,99.90
2018-09-15T03:54:52.214Z,99.90
2018-09-15T03:57:21.275Z,99.90
2018-09-15T03:59:50.524Z,99.90
2018-09-15T04:02:19.599Z,99.90
2018-09-15T04:04:48.820Z,99.90
2018-09-15T04:07:17.876Z,99.90
2018-09-15T04:09:47.090Z,99.90
2018-09-15T04:12:16.160Z,99.90
2018-09-15T04:14:45.317Z,99.90
2018-09-15T04:17:14.442Z,99.90
2018-09-15T04:19:47.515Z,99.90
2018-09-15T04:22:16.700Z,99.90
2018-09-15T04:24:45.916Z,99.90
2018-09-15T04:27:15.017Z,99.90
2018-09-15T04:29:44.185Z,99.90
2018-09-15T04:32:13.369Z,99.90
2018-09-15T04:34:42.621Z,99.90
2018-09-15T04:37:11.711Z,99.90
2018-09-15T04:39:40.839Z,99.90
2018-09-15T04:42:10.055Z,99.90
2018-09-15T04:44:39.169Z,99.90
2018-09-15T04:47:08.289Z,99.90
2018-09-15T04:49:37.469Z,99.90
2018-09-15T04:52:06.620Z,99.90
2018-09-15T04:54:35.654Z,99.90
2018-09-15T04:57:04.751Z,99.90
2018-09-15T04:59:33.783Z,99.90
2018-09-15T05:02:02.946Z,99.90
2018-09-15T05:04:32.089Z,99.90
2018-09-15T05:07:01.325Z,99.90
2018-09-15T05:09:30.513Z,99.90
2018-09-15T05:11:59.620Z,99.90
2018-09-15T05:14:28.799Z,99.90
2018-09-15T05:16:57.945Z,99.90
2018-09-15T05:19:27.063Z,99.90
2018-09-15T05:21:56.175Z,99.90
2018-09-15T05:24:25.431Z,99.90
2018-09-15T05:26:54.601Z,99.90
2018-09-15T05:29:23.854Z,99.90
2018-09-15T05:31:53.028Z,99.90
2018-09-15T05:34:22.232Z,99.90
2018-09-15T05:36:51.331Z,99.90
2018-09-15T05:39:20.431Z,99.90
2018-09-15T05:41:49.606Z,99.90
2018-09-15T05:44:18.794Z,99.90
2018-09-15T05:46:48.000Z,99.90
2018-09-15T05:49:17.114Z,99.90
2018-09-15T05:51:52.677Z,99.90
2018-09-15T05:54:21.845Z,99.90
2018-09-15T05:56:51.121Z,99.90
2018-09-15T05:59:20.223Z,99.90
2018-09-15T06:01:49.577Z,99.90
2018-09-15T06:04:18.755Z,99.90
2018-09-15T06:06:48.024Z,99.90
2018-09-15T06:09:17.235Z,99.90
2018-09-15T06:11:46.371Z,99.90
2018-09-15T06:14:15.581Z,99.90
2018-09-15T06:16:44.778Z,99.90
2018-09-15T06:19:13.896Z,99.90
2018-09-15T06:21:43.080Z,99.90
2018-09-15T06:24:12.160Z,99.90
2018-09-15T06:26:41.276Z,99.90
2018-09-15T06:29:10.468Z,99.80
2018-09-15T06:31:39.710Z,99.60
2018-09-15T06:34:08.880Z,99.50
2018-09-15T06:36:38.066Z,99.30
2018-09-15T06:39:09.553Z,99.20
2018-09-15T06:41:38.814Z,99.00
2018-09-15T06:44:08.038Z,98.90
2018-09-15T06:46:37.197Z,98.80
2018-09-15T06:49:06.414Z,98.90
2018-09-15T06:51:35.543Z,98.90
2018-09-15T06:54:04.709Z,99.00
2018-09-15T06:56:33.838Z,98.70
2018-09-15T06:59:03.046Z,98.40
2018-09-15T07:01:32.214Z,98.40
2018-09-15T07:04:01.450Z,98.10
2018-09-15T07:06:30.557Z,98.20
2018-09-15T07:08:59.608Z,98.10
2018-09-15T07:11:28.715Z,98.10
2018-09-15T07:13:57.845Z,97.30
2018-09-15T07:16:27.055Z,97.60
2018-09-15T07:18:56.147Z,97.50
2018-09-15T07:21:25.224Z,97.30
2018-09-15T07:23:54.409Z,97.00
2018-09-15T07:26:23.653Z,96.70
2018-09-15T07:28:52.829Z,95.50
2018-09-15T07:31:22.027Z,95.60
2018-09-15T07:33:51.103Z,95.30
2018-09-15T07:36:20.269Z,94.50
2018-09-15T07:38:49.526Z,94.30
2018-09-15T07:41:18.672Z,93.40
2018-09-15T07:43:48.175Z,93.40
2018-09-15T07:46:17.315Z,92.90
2018-09-15T07:48:46.378Z,91.60
2018-09-15T07:51:15.470Z,91.60
2018-09-15T07:53:44.552Z,90.70
2018-09-15T07:56:13.626Z,90.10
2018-09-15T07:58:42.856Z,89.00
2018-09-15T08:01:11.950Z,87.70
2018-09-15T08:03:41.108Z,85.70
2018-09-15T08:06:10.358Z,84.60
2018-09-15T08:08:39.495Z,80.90
2018-09-15T08:11:08.753Z,81.00
2018-09-15T08:13:37.743Z,81.20
2018-09-15T08:16:06.839Z,75.50
2018-09-15T08:18:35.931Z,74.90
2018-09-15T08:21:05.010Z,75.20
2018-09-15T08:23:34.193Z,74.90
2018-09-15T08:26:03.320Z,76.80
2018-09-15T08:28:32.482Z,75.00
2018-09-15T08:31:01.666Z,73.60
2018-09-15T08:33:30.785Z,72.20
2018-09-15T08:35:59.970Z,69.70
2018-09-15T08:38:29.096Z,66.40
2018-09-15T08:40:58.352Z,68.10
2018-09-15T08:43:27.499Z,69.80
2018-09-15T08:45:56.690Z,71.80
2018-09-15T08:48:25.821Z,70.80
2018-09-15T08:50:54.856Z,68.10
2018-09-15T08:53:24.038Z,69.90
2018-09-15T08:55:53.345Z,66.80
2018-09-15T08:58:22.432Z,65.90
2018-09-15T09:00:51.500Z,65.40
2018-09-15T09:03:20.750Z,65.40
2018-09-15T09:05:49.972Z,64.30
2018-09-15T09:08:19.058Z,65.20
2018-09-15T09:10:48.157Z,68.60
2018-09-15T09:13:17.281Z,70.50
2018-09-15T09:15:46.494Z,71.10
2018-09-15T09:18:15.669Z,68.50
2018-09-15T09:20:44.828Z,71.40
2018-09-15T09:23:14.135Z,71.90
2018-09-15T09:25:43.387Z,73.30
2018-09-15T09:28:12.560Z,76.30
2018-09-15T09:30:41.830Z,75.00
2018-09-15T09:33:11.181Z,76.40
2018-09-15T09:35:40.272Z,76.60
2018-09-15T09:38:09.525Z,75.10
2018-09-15T09:40:38.784Z,72.60
2018-09-15T09:43:11.034Z,72.90
2018-09-15T09:45:40.190Z,69.70
2018-09-15T09:48:09.409Z,72.70
2018-09-15T09:50:38.552Z,66.90
2018-09-15T09:53:07.938Z,69.20
2018-09-15T09:55:37.053Z,67.00
2018-09-15T09:58:06.365Z,66.10
2018-09-15T10:00:40.525Z,62.50
2018-09-15T10:03:09.671Z,59.80
2018-09-15T10:05:38.818Z,58.50
2018-09-15T10:08:08.035Z,56.40
2018-09-15T10:10:37.095Z,57.00
2018-09-15T10:13:06.338Z,56.50
2018-09-15T10:15:35.546Z,55.20
2018-09-15T10:18:04.729Z,55.20
2018-09-15T10:20:34.131Z,54.50
2018-09-15T10:23:03.244Z,55.20
2018-09-15T10:25:32.429Z,55.30
2018-09-15T10:28:01.558Z,55.30
2018-09-15T10:30:30.686Z,55.20
2018-09-15T10:32:59.793Z,54.40
2018-09-15T10:35:28.979Z,55.50
2018-09-15T10:37:58.126Z,55.90
2018-09-15T10:40:31.698Z,56.30
2018-09-15T10:43:00.791Z,56.30
2018-09-15T10:45:29.968Z,57.50
2018-09-15T10:47:59.163Z,57.30
2018-09-15T10:50:28.385Z,52.90
2018-09-15T10:52:57.609Z,53.90
2018-09-15T10:55:26.613Z,52.80
2018-09-15T10:57:55.778Z,51.90
2018-09-15T11:00:24.934Z,52.40
2018-09-15T11:02:54.044Z,53.00
2018-09-15T11:05:23.223Z,52.80
2018-09-15T11:07:52.377Z,55.20
2018-09-15T11:10:21.626Z,55.70
2018-09-15T11:12:50.734Z,56.30
2018-09-15T11:15:29.371Z,55.00
2018-09-15T11:17:58.540Z,54.60
2018-09-15T11:20:27.727Z,54.90
2018-09-15T11:22:56.847Z,54.50
2018-09-15T11:25:26.016Z,55.70
2018-09-15T11:27:55.139Z,55.30
2018-09-15T11:30:24.358Z,56.00
2018-09-15T11:32:53.468Z,56.20
2018-09-15T11:35:22.644Z,57.40
2018-09-15T11:37:51.810Z,57.90
2018-09-15T11:40:20.877Z,59.30
2018-09-15T11:42:50.188Z,59.80
2018-09-15T11:45:19.285Z,60.30
2018-09-15T11:47:48.643Z,61.50
2018-09-15T11:50:17.732Z,62.10
2018-09-15T11:52:47.595Z,62.30
2018-09-15T11:55:17.050Z,59.80
2018-09-15T11:57:46.269Z,59.70
2018-09-15T12:00:18.736Z,58.50
2018-09-15T12:02:47.969Z,57.50
2018-09-15T12:05:17.151Z,58.30
2018-09-15T12:07:46.457Z,57.90
2018-09-15T12:10:15.560Z,56.90
2018-09-15T12:12:44.841Z,55.70
2018-09-15T12:15:14.090Z,55.10
2018-09-15T12:17:43.251Z,53.90
2018-09-15T12:20:12.420Z,53.00
2018-09-15T12:22:41.695Z,54.40
2018-09-15T12:25:11.035Z,53.80
2018-09-15T12:27:40.491Z,51.90
2018-09-15T12:30:09.834Z,49.60
2018-09-15T12:32:38.949Z,49.60
2018-09-15T12:35:08.101Z,50.30
2018-09-15T12:37:37.330Z,47.10
2018-09-15T12:40:06.576Z,48.10
2018-09-15T12:42:35.801Z,46.40
2018-09-15T12:45:05.163Z,46.60
2018-09-15T12:47:34.232Z,44.70
2018-09-15T12:50:04.410Z,44.60
2018-09-15T12:52:33.595Z,45.10
2018-09-15T12:55:02.790Z,44.60
2018-09-15T12:57:32.019Z,42.90
2018-09-15T13:00:01.124Z,42.00
2018-09-15T13:02:30.240Z,41.50
2018-09-15T13:04:59.478Z,41.90
2018-09-15T13:07:28.537Z,43.40
2018-09-15T13:09:57.671Z,43.00
2018-09-15T13:12:26.956Z,44.90
2018-09-15T13:14:56.185Z,46.40
2018-09-15T13:17:25.321Z,46.70
2018-09-15T13:19:54.479Z,46.60
2018-09-15T13:22:23.657Z,48.60
2018-09-15T13:24:52.846Z,47.80
2018-09-15T13:27:21.986Z,48.90
2018-09-15T13:29:51.529Z,49.50
2018-09-15T13:32:20.447Z,49.30
2018-09-15T13:34:54.272Z,51.00
2018-09-15T13:37:23.592Z,52.00
2018-09-15T13:39:52.765Z,52.40
2018-09-15T13:42:21.999Z,53.80
2018-09-15T13:44:51.164Z,55.00
2018-09-15T13:47:20.410Z,56.60
2018-09-15T13:49:49.525Z,55.90
2018-09-15T13:52:18.663Z,56.40
2018-09-15T13:54:47.874Z,57.70
2018-09-15T13:57:17.171Z,58.40
2018-09-15T13:59:46.396Z,59.40
2018-09-15T14:02:15.521Z,60.20
2018-09-15T14:04:44.762Z,61.10
2018-09-15T14:07:14.040Z,62.40
2018-09-15T14:09:43.800Z,63.00
2018-09-15T14:12:12.382Z,64.10
2018-09-15T14:14:41.548Z,65.20
2018-09-15T14:17:10.875Z,66.60
2018-09-15T14:19:39.976Z,68.30
2018-09-15T14:22:09.080Z,68.60
2018-09-15T14:24:38.206Z,69.50
2018-09-15T14:27:07.332Z,71.40
2018-09-15T14:29:36.471Z,73.60
2018-09-15T14:32:05.578Z,75.20
2018-09-15T14:34:34.758Z,75.90
2018-09-15T14:37:03.984Z,76.00
2018-09-15T14:39:33.185Z,76.40
2018-09-15T14:42:02.361Z,75.30
2018-09-15T14:44:31.584Z,75.60
2018-09-15T14:47:00.622Z,74.60
2018-09-15T14:49:29.882Z,74.20
2018-09-15T14:51:59.034Z,72.90
2018-09-15T14:54:28.317Z,72.50
2018-09-15T14:56:57.510Z,73.10
2018-09-15T14:59:26.758Z,73.60
2018-09-15T15:01:56.004Z,71.80
2018-09-15T15:04:25.239Z,69.20
2018-09-15T15:06:54.560Z,68.40
2018-09-15T15:09:23.869Z,65.10
2018-09-15T15:11:53.084Z,61.90
2018-09-15T15:14:22.204Z,62.90
2018-09-15T15:16:51.480Z,63.90
2018-09-15T15:19:20.633Z,65.30
2018-09-15T15:21:49.728Z,67.60
2018-09-15T15:24:18.914Z,69.10
2018-09-15T15:26:48.142Z,69.90
2018-09-15T15:29:17.480Z,70.10
2018-09-15T15:31:46.854Z,71.30
2018-09-15T15:34:15.992Z,71.50
2018-09-15T15:36:45.240Z,71.90
2018-09-15T15:39:14.450Z,72.30
2018-09-15T15:41:43.660Z,73.50
2018-09-15T15:44:12.800Z,73.80
2018-09-15T15:46:41.995Z,74.40
2018-09-15T15:49:11.164Z,74.70
2018-09-15T15:51:40.269Z,74.80
2018-09-15T15:54:09.513Z,74.50
2018-09-15T15:56:38.614Z,76.30
2018-09-15T15:59:07.978Z,77.90
2018-09-15T16:01:37.141Z,79.30
2018-09-15T16:04:06.371Z,80.50
2018-09-15T16:06:35.621Z,80.60
2018-09-15T16:09:05.503Z,82.00
2018-09-15T16:11:34.839Z,82.50
2018-09-15T16:14:04.099Z,83.30
2018-09-15T16:16:33.324Z,84.10
2018-09-15T16:19:02.544Z,84.80
2018-09-15T16:21:31.675Z,85.20
2018-09-15T16:24:00.789Z,85.80
2018-09-15T16:26:29.904Z,86.10
2018-09-15T16:28:59.003Z,86.40
2018-09-15T16:31:28.133Z,87.60
2018-09-15T16:33:57.287Z,87.60
2018-09-15T16:36:26.395Z,88.00
2018-09-15T16:38:55.539Z,88.40
2018-09-15T16:41:24.759Z,88.90
2018-09-15T16:43:53.908Z,89.20
2018-09-15T16:46:23.115Z,89.70
2018-09-15T16:48:55.465Z,90.00
2018-09-15T16:51:27.797Z,90.10
2018-09-15T16:53:56.960Z,90.00
2018-09-15T16:56:26.034Z,90.20
2018-09-15T16:58:55.254Z,90.60
2018-09-15T17:01:24.343Z,90.80
2018-09-15T17:03:53.567Z,90.90
2018-09-15T17:06:22.762Z,91.10
2018-09-15T17:08:51.885Z,91.20
2018-09-15T17:11:21.051Z,91.30
2018-09-15T17:13:50.202Z,91.50
2018-09-15T17:16:19.608Z,91.60
2018-09-15T17:18:48.850Z,91.70
2018-09-15T17:21:17.926Z,91.70
2018-09-15T17:23:47.086Z,91.60
2018-09-15T17:26:16.138Z,91.80
2018-09-15T17:28:45.225Z,91.70
2018-09-15T17:31:14.341Z,91.60
2018-09-15T17:33:43.565Z,91.90
2018-09-15T17:36:12.755Z,91.80
2018-09-15T17:38:41.925Z,91.80
2018-09-15T17:41:11.069Z,91.90
2018-09-15T17:43:40.288Z,91.80
2018-09-15T17:46:09.451Z,91.80
2018-09-15T17:48:38.655Z,91.80
2018-09-15T17:51:07.860Z,91.90
2018-09-15T17:53:37.011Z,91.90
2018-09-15T17:56:06.112Z,92.00
2018-09-15T17:58:35.256Z,92.20
2018-09-15T18:01:04.454Z,92.20
2018-09-15T18:03:33.543Z,92.20
2018-09-15T18:06:02.672Z,92.50
2018-09-15T18:08:31.903Z,92.60
2018-09-15T18:11:01.058Z,92.60
2018-09-15T18:13:35.096Z,92.50
2018-09-15T18:16:04.219Z,92.60
2018-09-15T18:18:33.473Z,92.90
2018-09-15T18:21:02.592Z,93.00
2018-09-15T18:23:31.717Z,93.20
2018-09-15T18:26:00.888Z,93.20
2018-09-15T18:28:30.015Z,93.10
2018-09-15T18:30:59.075Z,93.10
2018-09-15T18:33:28.174Z,93.10
2018-09-15T18:35:57.243Z,93.10
2018-09-15T18:38:26.349Z,93.10
2018-09-15T18:40:55.549Z,93.00
2018-09-15T18:43:24.589Z,93.10
2018-09-15T18:45:53.745Z,93.10
2018-09-15T18:48:22.813Z,93.30
2018-09-15T18:50:52.006Z,93.40
2018-09-15T18:53:21.088Z,93.50
2018-09-15T18:55:50.219Z,93.60
2018-09-15T18:58:19.325Z,93.60
2018-09-15T19:00:48.552Z,93.60
2018-09-15T19:03:17.599Z,93.70
2018-09-15T19:05:47.324Z,93.90
2018-09-15T19:08:16.555Z,93.90
2018-09-15T19:10:45.715Z,93.90
2018-09-15T19:13:14.769Z,93.80
2018-09-15T19:15:43.877Z,93.80
2018-09-15T19:18:13.043Z,93.70
2018-09-15T19:20:42.297Z,93.70
2018-09-15T19:23:11.516Z,93.70
2018-09-15T19:25:40.609Z,93.80
2018-09-15T19:28:09.740Z,94.00
2018-09-15T19:30:38.910Z,93.90
2018-09-15T19:33:08.159Z,94.00
2018-09-15T19:35:37.318Z,93.90
2018-09-15T19:38:06.594Z,94.00
2018-09-15T19:40:35.753Z,94.00
2018-09-15T19:43:04.954Z,93.90
2018-09-15T19:45:34.215Z,93.90
2018-09-15T19:48:03.395Z,94.00
2018-09-15T19:50:32.465Z,94.00
2018-09-15T19:53:01.577Z,93.90
2018-09-15T19:55:30.753Z,94.00
2018-09-15T19:57:59.885Z,94.00
2018-09-15T20:00:28.999Z,94.10
2018-09-15T20:02:58.193Z,94.10
2018-09-15T20:05:27.354Z,94.10
2018-09-15T20:07:56.480Z,94.10
2018-09-15T20:10:25.694Z,94.20
2018-09-15T20:12:54.851Z,94.30
2018-09-15T20:15:26.135Z,94.50
2018-09-15T20:17:53.835Z,94.40
2018-09-15T20:20:22.421Z,94.50
2018-09-15T20:22:52.961Z,94.40
2018-09-15T20:25:22.160Z,94.40
2018-09-15T20:27:51.394Z,94.30
2018-09-15T20:30:20.574Z,94.40
2018-09-15T20:32:49.773Z,94.50
2018-09-15T20:35:18.919Z,94.60
2018-09-15T20:37:47.999Z,94.70
2018-09-15T20:40:17.156Z,94.70
2018-09-15T20:42:46.276Z,94.80
2018-09-15T20:45:15.352Z,95.00
2018-09-15T20:47:44.496Z,95.00
2018-09-15T20:50:13.664Z,95.10
2018-09-15T20:52:42.832Z,95.10
2018-09-15T20:55:11.923Z,95.10
2018-09-15T20:57:41.067Z,95.10
2018-09-15T21:00:11.013Z,95.10
2018-09-15T21:02:40.754Z,95.10
2018-09-15T21:05:10.178Z,95.20
2018-09-15T21:07:39.375Z,95.30
2018-09-15T21:10:08.486Z,95.40
2018-09-15T21:12:37.655Z,95.40
2018-09-15T21:15:06.840Z,95.40
2018-09-15T21:17:35.909Z,95.20
2018-09-15T21:20:05.059Z,95.30
2018-09-15T21:22:34.121Z,95.40
2018-09-15T21:25:03.333Z,95.40
2018-09-15T21:27:32.403Z,95.50
2018-09-15T21:30:01.554Z,95.40
2018-09-15T21:32:30.758Z,95.40
2018-09-15T21:34:59.937Z,95.50
2018-09-15T21:37:33.569Z,95.50
2018-09-15T21:40:02.979Z,95.50
2018-09-15T21:42:32.113Z,95.40
2018-09-15T21:45:01.353Z,95.40
2018-09-15T21:47:30.564Z,95.50
2018-09-15T21:49:59.697Z,95.90
2018-09-15T21:52:28.789Z,95.90
2018-09-15T21:54:57.939Z,95.90
2018-09-15T21:57:27.180Z,95.90
2018-09-15T21:59:56.325Z,96.00
2018-09-15T22:02:25.430Z,96.10
2018-09-15T22:04:54.544Z,95.90
2018-09-15T22:07:23.662Z,95.90
2018-09-15T22:09:52.849Z,95.80
2018-09-15T22:12:22.046Z,95.80
2018-09-15T22:14:51.260Z,95.80
2018-09-15T22:17:20.351Z,95.90
2018-09-15T22:19:49.538Z,95.90
2018-09-15T22:22:18.951Z,95.70
2018-09-15T22:24:48.069Z,96.10
2018-09-15T22:27:17.288Z,95.60
2018-09-15T22:29:46.420Z,95.70
2018-09-15T22:32:15.562Z,95.80
2018-09-15T22:34:44.681Z,96.00
2018-09-15T22:37:13.715Z,95.90
2018-09-15T22:39:42.942Z,96.10
2018-09-15T22:42:12.122Z,96.10
2018-09-15T22:44:41.279Z,95.90
2018-09-15T22:47:10.270Z,95.80
2018-09-15T22:49:39.415Z,96.00
2018-09-15T22:52:08.628Z,96.00
2018-09-15T22:54:37.830Z,96.30
2018-09-15T22:57:06.953Z,96.50
2018-09-15T22:59:36.068Z,96.60
2018-09-15T23:02:05.240Z,96.60
2018-09-15T23:04:34.408Z,96.60
2018-09-15T23:07:03.415Z,96.90
2018-09-15T23:09:38.415Z,96.50
2018-09-15T23:12:07.595Z,96.50
2018-09-15T23:14:36.710Z,96.70
2018-09-15T23:17:05.938Z,96.70
2018-09-15T23:19:35.088Z,96.50
2018-09-15T23:22:04.355Z,96.30
2018-09-15T23:24:33.562Z,96.30
2018-09-15T23:27:02.721Z,96.30
2018-09-15T23:29:31.978Z,96.30
2018-09-15T23:32:01.139Z,96.20
2018-09-15T23:34:30.304Z,96.30
2018-09-15T23:36:59.450Z,96.30
2018-09-15T23:39:28.680Z,96.10
2018-09-15T23:41:57.900Z,96.10
2018-09-15T23:44:27.146Z,96.10
2018-09-15T23:46:56.313Z,96.20
2018-09-15T23:49:25.489Z,96.30
2018-09-15T23:51:54.697Z,96.40
2018-09-15T23:54:23.920Z,96.60
2018-09-15T23:56:53.158Z,96.90
2018-09-15T23:59:22.415Z,97.00
